Metar/TAF

[source: ADDS]
METAR
KSNA 191253Z 00000KT 9SM BKN013 18/15 A2980 RMK AO2 SLP088 T01780150 =
KSNA 191120Z 1912/2012 VRB03KT P6SM BKN015 FM191500 26003KT P6SM SCT018 FM192100 23009KT P6SM SKC FM200200 VRB04KT P6SM FEW012 FM201000 VRB03KT P6SM BKN010
TAF
KSNA 191120Z 1912/2012 VRB03KT P6SM BKN015 FM191500 26003KT P6SM SCT018 FM192100 23009KT P6SM SKC FM200200 VRB04KT P6SM FEW012 FM201000 VRB03KT P6SM BKN010 =
SR / SS: 13:38 / 01:51 UTC ( 2018-09-19)

Sectional

Sectional Chart - Southern California

Airport Diagram

airport diagram - John Wayne Airport, Orange County

IFR Chart

IFR Chart - Southern California